Menu Close Menu
Station Historical Data
Daily Summary for August 7, 2017 Units:  English    Metric   Both
« Previous Day
Next Day »
Daily Weekly Monthly Yearly Custom
  High: Low: Average:
Temperature: 80.5 °F 70.2 °F 75.1 °F
Dew Point: 75.4 °F 68.2 °F 71.8 °F
Humidity: 94% 78% 90%
Wind Speed: 1.0mph 0.0mph 0mph
Wind Gust: 5.0mph - -
Wind- - NW
Pressure: 30.05 in 29.96 in -
Precipitation: 1.25 in    
Historical Graphs
 
 
Tabular Data for August 7, 2017
Time Temperature Dew Point Pressure Wind Wind Speed Wind Gust Humidity Rainfall Rate (Hourly) solar Conditions
00:00 72.5 °F 70.4 °F 30.03 in Calm     93% 0.00 in WeatherDisplay:10.37 W/m2 RA
00:05 72.6 °F 70.5 °F 30.03 in Calm     93% 0.00 in WeatherDisplay:10.37 W/m2 BKN
00:10 72.6 °F 70.5 °F 30.03 in Calm     93% 0.00 in WeatherDisplay:10.37 W/m2 BKN
00:15 72.6 °F 70.4 °F 30.03 in Calm     93% 0.00 in WeatherDisplay:10.37 W/m2 BKN
00:20 72.5 °F 70.4 °F 30.03 in Calm     93% 0.00 in WeatherDisplay:10.37 W/m2 BKN
00:25 72.5 °F 70.4 °F 30.03 in Calm     93% 0.00 in WeatherDisplay:10.37 W/m2 BKN
00:30 72.6 °F 70.5 °F 30.04 in Calm     93% 0.00 in WeatherDisplay:10.37 W/m2 BKN
00:35 72.6 °F 70.5 °F 30.04 in Calm     93% 0.00 in WeatherDisplay:10.37 W/m2 BKN
00:40 72.6 °F 70.5 °F 30.04 in Calm     93% 0.00 in WeatherDisplay:10.37 W/m2 BKN
00:45 72.6 °F 70.5 °F 30.04 in Calm     93% 0.00 in WeatherDisplay:10.37 W/m2 BKN
00:50 72.6 °F 70.5 °F 30.05 in Calm     93% 0.00 in WeatherDisplay:10.37 W/m2 -RA
00:55 72.5 °F 70.4 °F 30.04 in Calm   1.0 mph 93% 0.00 in WeatherDisplay:10.37 W/m2 -RA
01:00 72.3 °F 70.2 °F 30.04 in Calm   1.0 mph 93% 0.00 in WeatherDisplay:10.37 W/m2 -RA
01:05 72.1 °F 70.0 °F 30.04 in Calm     93% 0.00 in WeatherDisplay:10.37 W/m2 -RA
01:10 72.0 °F 69.9 °F 30.04 in Calm   1.0 mph 93% 0.13 in WeatherDisplay:10.37 W/m2 -RA
01:15 71.9 °F 69.8 °F 30.03 in Calm     93% 0.01 in WeatherDisplay:10.37 W/m2 -RA
01:20 71.8 °F 69.7 °F 30.03 in Calm     93% 0.01 in WeatherDisplay:10.37 W/m2 -RA
01:25 71.8 °F 69.7 °F 30.03 in Calm     93% 0.00 in WeatherDisplay:10.37 W/m2 -RA
01:30 71.7 °F 69.6 °F 30.02 in Calm     93% 0.00 in WeatherDisplay:10.37 W/m2 -RA
01:35 71.6 °F 69.5 °F 30.02 in Calm     93% 0.00 in WeatherDisplay:10.37 W/m2 -RA
01:40 71.5 °F 69.4 °F 30.02 in Calm     93% 0.00 in WeatherDisplay:10.37 W/m2 -RA
01:45 71.6 °F 69.5 °F 30.02 in Calm     93% 0.00 in WeatherDisplay:10.37 W/m2 -RA
01:50 71.5 °F 69.4 °F 30.02 in Calm     93% 0.00 in WeatherDisplay:10.37 W/m2 SCT
01:55 71.4 °F 69.3 °F 30.02 in Calm     93% 0.00 in WeatherDisplay:10.37 W/m2 SCT
02:00 71.4 °F 69.3 °F 30.02 in Calm     93% 0.00 in WeatherDisplay:10.37 W/m2 SCT
02:05 71.3 °F 69.2 °F 30.02 in Calm     93% 0.00 in WeatherDisplay:10.37 W/m2 SCT
02:10 71.4 °F 69.3 °F 30.01 in Calm     93% 0.00 in WeatherDisplay:10.37 W/m2 SCT
02:15 71.4 °F 69.3 °F 30.02 in Calm     93% 0.01 in WeatherDisplay:10.37 W/m2 SCT
02:25 71.5 °F 69.4 °F 30.01 in Calm     93% 0.00 in WeatherDisplay:10.37 W/m2 BKN
02:30 71.5 °F 69.4 °F 30.01 in Calm     93% 0.00 in WeatherDisplay:10.37 W/m2 BKN
02:35 71.6 °F 69.4 °F 30.01 in Calm     93% 0.00 in WeatherDisplay:10.37 W/m2 BKN
02:40 71.6 °F 69.5 °F 30.01 in Calm     93% 0.00 in WeatherDisplay:10.37 W/m2 BKN
02:45 71.6 °F 69.8 °F 30.01 in Calm     94% 0.00 in WeatherDisplay:10.37 W/m2 BKN
02:50 71.6 °F 69.8 °F 30.01 in Calm     94% 0.00 in WeatherDisplay:10.37 W/m2 BKN
02:55 71.7 °F 69.9 °F 30.00 in Calm     94% 0.00 in WeatherDisplay:10.37 W/m2 BKN
03:00 71.8 °F 70.0 °F 30.01 in Calm     94% 0.00 in WeatherDisplay:10.37 W/m2 BKN
03:05 71.8 °F 70.0 °F 30.01 in Calm     94% 0.00 in WeatherDisplay:10.37 W/m2 BKN
03:10 71.9 °F 70.1 °F 30.01 in Calm     94% 0.00 in WeatherDisplay:10.37 W/m2 BKN
03:15 71.9 °F 70.1 °F 30.00 in Calm   1.0 mph 94% 0.01 in WeatherDisplay:10.37 W/m2 RA
03:20 72.0 °F 70.2 °F 30.01 in Calm     94% 0.00 in WeatherDisplay:10.37 W/m2 BKN
03:25 72.1 °F 70.3 °F 30.01 in Calm     94% 0.01 in WeatherDisplay:10.37 W/m2 RA
03:30 72.1 °F 70.3 °F 30.01 in Calm     94% 0.01 in WeatherDisplay:10.37 W/m2 -DZ
03:40 72.2 °F 70.4 °F 30.02 in Calm     94% 0.03 in WeatherDisplay:10.37 W/m2 -DZ
03:45 72.3 °F 70.5 °F 30.01 in Calm     94% 0.04 in WeatherDisplay:10.37 W/m2 -RA
03:50 72.3 °F 70.5 °F 30.01 in Calm     94% 0.03 in WeatherDisplay:10.37 W/m2 -RA
03:55 72.3 °F 70.5 °F 30.01 in Calm     94% 0.02 in WeatherDisplay:10.37 W/m2 RA
04:00 72.3 °F 70.5 °F 30.01 in Calm     94% 0.01 in WeatherDisplay:10.37 W/m2 RA
04:05 72.3 °F 70.5 °F 30.01 in Calm     94% 0.02 in WeatherDisplay:10.37 W/m2 RA
04:10 72.3 °F 70.5 °F 30.01 in Calm     94% 0.01 in WeatherDisplay:10.37 W/m2 RA
04:15 72.3 °F 70.5 °F 30.00 in Calm     94% 0.01 in WeatherDisplay:10.37 W/m2 -RA
04:20 72.3 °F 70.5 °F 30.00 in Calm     94% 0.01 in WeatherDisplay:10.37 W/m2 -RA
04:25 72.3 °F 70.5 °F 30.00 in Calm     94% 0.00 in WeatherDisplay:10.37 W/m2 -RA
04:30 72.3 °F 70.5 °F 30.00 in Calm     94% 0.00 in WeatherDisplay:10.37 W/m2 -RA
04:40 72.3 °F 70.5 °F 30.00 in Calm     94% 0.00 in WeatherDisplay:10.37 W/m2 -RA
04:45 72.4 °F 70.6 °F 30.00 in Calm     94% 0.00 in WeatherDisplay:10.37 W/m2 -RA
04:50 72.4 °F 70.6 °F 30.00 in Calm     94% 0.00 in WeatherDisplay:10.37 W/m2 -RA
04:55 72.5 °F 70.7 °F 30.00 in Calm     94% 0.00 in WeatherDisplay:10.37 W/m2 -RA
05:00 72.5 °F 70.7 °F 30.00 in Calm     94% 0.00 in WeatherDisplay:10.37 W/m2 -RA
05:05 72.5 °F 70.7 °F 30.00 in Calm     94% 0.00 in WeatherDisplay:10.37 W/m2 -RA
05:10 72.6 °F 70.8 °F 30.00 in Calm     94% 0.00 in WeatherDisplay:10.37 W/m2 -RA
05:15 72.6 °F 70.8 °F 30.00 in Calm     94% 0.00 in WeatherDisplay:10.37 W/m2 -RA
05:20 72.7 °F 70.9 °F 30.00 in Calm     94% 0.00 in WeatherDisplay:10.37 W/m2 OVC
05:25 72.8 °F 70.9 °F 30.00 in Calm     94% 0.00 in WeatherDisplay:10.37 W/m2 OVC
05:30 72.8 °F 71.0 °F 30.00 in Calm     94% 0.02 in WeatherDisplay:10.37 W/m2 -DZ
05:35 72.8 °F 71.0 °F 30.01 in Calm     94% 0.02 in WeatherDisplay:10.37 W/m2 -DZ
05:40 72.9 °F 71.1 °F 30.01 in Calm   2.0 mph 94% 0.02 in WeatherDisplay:10.37 W/m2 -DZ
05:45 72.8 °F 71.0 °F 30.01 in Calm   2.0 mph 94% 0.02 in WeatherDisplay:10.37 W/m2 -DZ
05:50 72.4 °F 70.5 °F 30.02 in Calm   2.0 mph 94% 0.11 in WeatherDisplay:10.37 W/m2 -DZ
05:55 71.5 °F 69.4 °F 30.01 in Calm   1.0 mph 93% 0.11 in WeatherDisplay:10.37 W/m2 +RA
06:00 70.8 °F 68.7 °F 30.01 in Calm     93% 0.03 in WeatherDisplay:10.37 W/m2 +RA
06:10 70.5 °F 68.4 °F 30.00 in Calm     93% 0.00 in WeatherDisplay:10.37 W/m2 +RA
06:15 70.4 °F 68.3 °F 30.00 in Calm     93% 0.01 in WeatherDisplay:10.37 W/m2 -RA
06:20 70.3 °F 68.2 °F 30.00 in Calm     93% 0.00 in WeatherDisplay:10.37 W/m2 -RA
06:25 70.3 °F 68.5 °F 30.00 in Calm     94% 0.00 in WeatherDisplay:10.37 W/m2 -RA
06:30 70.2 °F 68.4 °F 30.00 in Calm     94% 0.00 in WeatherDisplay:10.37 W/m2 -RA
06:35 70.2 °F 68.4 °F 30.01 in Calm     94% 0.00 in WeatherDisplay:10.37 W/m2 -RA
06:40 70.2 °F 68.4 °F 30.01 in Calm     94% 0.00 in WeatherDisplay:10.37 W/m2 -RA
06:45 70.3 °F 68.5 °F 30.01 in Calm     94% 0.00 in WeatherDisplay:10.37 W/m2 -RA
06:50 70.4 °F 68.6 °F 30.01 in Calm     94% 0.00 in WeatherDisplay:10.37 W/m2 BKN
06:55 70.5 °F 68.7 °F 30.01 in Calm     94% 0.00 in WeatherDisplay:10.37 W/m2 BKN
07:00 70.6 °F 68.8 °F 30.00 in Calm     94% 0.00 in WeatherDisplay:10.37 W/m2 BKN
07:05 70.7 °F 68.9 °F 30.01 in Calm     94% 0.00 in WeatherDisplay:10.37 W/m2 -RA
07:10 70.8 °F 69.0 °F 30.01 in Calm     94% 0.00 in WeatherDisplay:10.37 W/m2 -RA
07:15 71.0 °F 69.2 °F 30.01 in Calm     94% 0.00 in WeatherDisplay:10.37 W/m2 -RA
07:20 71.1 °F 69.3 °F 30.01 in Calm     94% 0.00 in WeatherDisplay:10.37 W/m2 OVC
07:25 71.2 °F 69.4 °F 30.01 in Calm     94% 0.00 in WeatherDisplay:10.37 W/m2 OVC
07:30 71.3 °F 69.5 °F 30.01 in Calm   1.0 mph 94% 0.00 in WeatherDisplay:10.37 W/m2 OVC
07:35 71.4 °F 69.6 °F 30.01 in Calm     94% 0.00 in WeatherDisplay:10.37 W/m2 OVC
07:40 71.6 °F 69.8 °F 30.01 in Calm     94% 0.00 in WeatherDisplay:10.37 W/m2 OVC
07:45 71.8 °F 69.9 °F 30.01 in Calm     94% 0.00 in WeatherDisplay:10.37 W/m2 OVC
07:50 71.9 °F 70.1 °F 30.01 in Calm     94% 0.00 in WeatherDisplay:10.37 W/m2 OVC
07:55 72.0 °F 70.2 °F 30.01 in Calm     94% 0.00 in WeatherDisplay:10.37 W/m2 OVC
08:00 72.1 °F 70.3 °F 30.01 in Calm     94% 0.00 in WeatherDisplay:10.37 W/m2 OVC
08:05 72.2 °F 70.4 °F 30.01 in Calm     94% 0.00 in WeatherDisplay:10.37 W/m2 OVC
08:10 72.3 °F 70.5 °F 30.01 in Calm     94% 0.00 in WeatherDisplay:10.37 W/m2 OVC
08:15 72.4 °F 70.6 °F 30.01 in Calm   1.0 mph 94% 0.00 in WeatherDisplay:10.37 W/m2 OVC
08:20 72.4 °F 70.6 °F 30.01 in Calm   1.0 mph 94% 0.00 in WeatherDisplay:10.37 W/m2 OVC
08:25 72.5 °F 70.7 °F 30.01 in Calm   1.0 mph 94% 0.00 in WeatherDisplay:10.37 W/m2 OVC
08:30 72.5 °F 70.7 °F 30.01 in Calm     94% 0.00 in WeatherDisplay:10.37 W/m2 OVC
08:35 72.6 °F 70.8 °F 30.01 in Calm     94% 0.00 in WeatherDisplay:10.37 W/m2 OVC
08:40 72.6 °F 70.8 °F 30.01 in Calm     94% 0.00 in WeatherDisplay:10.37 W/m2 OVC
08:45 72.7 °F 70.9 °F 30.01 in Calm   1.0 mph 94% 0.00 in WeatherDisplay:10.37 W/m2 OVC
08:50 72.7 °F 70.9 °F 30.02 in Calm   1.0 mph 94% 0.00 in WeatherDisplay:10.37 W/m2 OVC
08:55 72.8 °F 71.0 °F 30.02 in Calm     94% 0.00 in WeatherDisplay:10.37 W/m2 OVC
09:00 72.8 °F 71.0 °F 30.02 in Calm     94% 0.00 in WeatherDisplay:10.37 W/m2 OVC
09:05 72.9 °F 71.1 °F 30.02 in Calm   1.0 mph 94% 0.00 in WeatherDisplay:10.37 W/m2 OVC
09:10 73.0 °F 71.2 °F 30.02 in Calm   1.0 mph 94% 0.00 in WeatherDisplay:10.37 W/m2 OVC
09:15 73.0 °F 71.2 °F 30.02 in Calm   1.0 mph 94% 0.00 in WeatherDisplay:10.37 W/m2 OVC
09:20 73.1 °F 71.3 °F 30.02 in Calm   1.0 mph 94% 0.00 in WeatherDisplay:10.37 W/m2 OVC
09:25 73.3 °F 71.5 °F 30.02 in Calm     94% 0.00 in WeatherDisplay:10.37 W/m2 OVC
09:30 73.5 °F 71.6 °F 30.02 in Calm     94% 0.00 in WeatherDisplay:10.37 W/m2 OVC
09:40 73.9 °F 72.1 °F 30.02 in Calm     94% 0.00 in WeatherDisplay:10.37 W/m2 OVC
09:45 73.9 °F 72.1 °F 30.02 in Calm   1.0 mph 94% 0.00 in WeatherDisplay:10.37 W/m2 OVC
09:50 74.2 °F 72.4 °F 30.01 in Calm     94% 0.00 in WeatherDisplay:10.37 W/m2 OVC
09:55 74.3 °F 72.5 °F 30.01 in Calm   2.0 mph 94% 0.00 in WeatherDisplay:10.37 W/m2 OVC
10:00 74.2 °F 72.4 °F 30.02 in Calm   1.0 mph 94% 0.00 in WeatherDisplay:10.37 W/m2 OVC
10:05 74.3 °F 72.5 °F 30.02 in Calm     94% 0.00 in WeatherDisplay:10.37 W/m2 OVC
10:10 74.2 °F 72.4 °F 30.02 in Calm   1.0 mph 94% 0.00 in WeatherDisplay:10.37 W/m2 OVC
10:15 74.0 °F 72.2 °F 30.02 in Calm   1.0 mph 94% 0.00 in WeatherDisplay:10.37 W/m2 OVC
10:20 74.0 °F 72.2 °F 30.02 in Calm   1.0 mph 94% 0.00 in WeatherDisplay:10.37 W/m2 OVC
10:25 74.2 °F 72.4 °F 30.02 in Calm     94% 0.00 in WeatherDisplay:10.37 W/m2 OVC
10:30 74.3 °F 72.5 °F 30.02 in Calm   1.0 mph 94% 0.00 in WeatherDisplay:10.37 W/m2 OVC
10:35 74.3 °F 72.5 °F 30.02 in Calm   1.0 mph 94% 0.00 in WeatherDisplay:10.37 W/m2 OVC
10:40 74.5 °F 72.6 °F 30.02 in Calm   1.0 mph 94% 0.00 in WeatherDisplay:10.37 W/m2 OVC
10:45 74.5 °F 72.7 °F 30.02 in Calm   1.0 mph 94% 0.00 in WeatherDisplay:10.37 W/m2 OVC
10:50 74.6 °F 72.4 °F 30.03 in Calm     93% 0.00 in WeatherDisplay:10.37 W/m2 OVC
10:55 74.7 °F 72.5 °F 30.03 in Calm   1.0 mph 93% 0.00 in WeatherDisplay:10.37 W/m2 OVC
11:00 74.7 °F 72.5 °F 30.03 in Calm   1.0 mph 93% 0.00 in WeatherDisplay:10.37 W/m2 OVC
11:05 75.1 °F 72.9 °F 30.03 in Calm   1.0 mph 93% 0.00 in WeatherDisplay:10.37 W/m2 OVC
11:10 75.5 °F 73.3 °F 30.03 in Calm   1.0 mph 93% 0.00 in WeatherDisplay:10.37 W/m2 OVC
11:15 76.0 °F 73.9 °F 30.03 in Calm   2.0 mph 93% 0.00 in WeatherDisplay:10.37 W/m2 OVC
11:20 76.4 °F 73.6 °F 30.03 in Calm   2.0 mph 91% 0.00 in WeatherDisplay:10.37 W/m2 OVC
11:25 76.9 °F 74.1 °F 30.03 in Calm   1.0 mph 91% 0.00 in WeatherDisplay:10.37 W/m2 OVC
11:30 77.0 °F 73.5 °F 30.03 in Calm   1.0 mph 89% 0.00 in WeatherDisplay:10.37 W/m2 OVC
11:35 77.0 °F 72.8 °F 30.03 in Calm   2.0 mph 87% 0.00 in WeatherDisplay:10.37 W/m2 OVC
11:40 77.2 °F 73.4 °F 30.03 in Calm   1.0 mph 88% 0.00 in WeatherDisplay:10.37 W/m2 OVC
11:45 77.2 °F 73.4 °F 30.03 in Calm   2.0 mph 88% 0.00 in WeatherDisplay:10.37 W/m2 OVC
11:50 77.0 °F 72.8 °F 30.04 in Calm     87% 0.00 in WeatherDisplay:10.37 W/m2 OVC
11:55 77.0 °F 73.2 °F 30.04 in Calm     88% 0.00 in WeatherDisplay:10.37 W/m2 OVC
12:00 76.9 °F 73.1 °F 30.04 in Calm     88% 0.00 in WeatherDisplay:10.37 W/m2 OVC
12:05 77.0 °F 73.5 °F 30.04 in Calm   1.0 mph 89% 0.00 in WeatherDisplay:10.37 W/m2 OVC
12:10 77.0 °F 73.5 °F 30.03 in Calm   1.0 mph 89% 0.00 in WeatherDisplay:10.37 W/m2 OVC
12:15 77.3 °F 73.8 °F 30.03 in Calm   1.0 mph 89% 0.00 in WeatherDisplay:10.37 W/m2 OVC
12:20 77.6 °F 73.8 °F 30.03 in Calm   1.0 mph 88% 0.00 in WeatherDisplay:10.37 W/m2 BKN
12:25 78.1 °F 73.9 °F 30.03 in Calm     87% 0.00 in WeatherDisplay:10.37 W/m2 BKN
12:30 78.4 °F 74.2 °F 30.03 in Calm   1.0 mph 87% 0.00 in WeatherDisplay:10.37 W/m2 BKN
12:35 78.5 °F 73.6 °F 30.03 in Calm   1.0 mph 85% 0.00 in WeatherDisplay:10.37 W/m2 BKN
12:40 78.4 °F 73.5 °F 30.03 in Calm   2.0 mph 85% 0.00 in WeatherDisplay:10.37 W/m2 BKN
12:45 78.0 °F 73.8 °F 30.03 in Calm   1.0 mph 87% 0.00 in WeatherDisplay:10.37 W/m2 BKN
12:50 77.5 °F 73.3 °F 30.03 in Calm     87% 0.00 in WeatherDisplay:10.37 W/m2 BKN
13:00 76.7 °F 73.2 °F 30.03 in Calm   2.0 mph 89% 0.07 in WeatherDisplay:10.37 W/m2 RA
13:05 76.2 °F 72.7 °F 30.03 in Calm   1.0 mph 89% 0.06 in WeatherDisplay:10.37 W/m2 RA
13:10 76.2 °F 73.4 °F 30.02 in Calm   1.0 mph 91% 0.00 in WeatherDisplay:10.37 W/m2 OVC
13:15 76.6 °F 74.1 °F 30.02 in Calm     92% 0.00 in WeatherDisplay:10.37 W/m2 OVC
13:20 76.7 °F 74.2 °F 30.02 in Calm     92% 0.00 in WeatherDisplay:10.37 W/m2 OVC
13:25 77.0 °F 74.4 °F 30.02 in Calm   2.0 mph 92% 0.00 in WeatherDisplay:10.37 W/m2 OVC
13:30 77.0 °F 74.5 °F 30.02 in Calm     92% 0.00 in WeatherDisplay:10.37 W/m2 OVC
13:35 76.7 °F 74.2 °F 30.02 in Calm     92% 0.00 in WeatherDisplay:10.37 W/m2 OVC
13:40 76.6 °F 74.1 °F 30.02 in Calm     92% 0.00 in WeatherDisplay:10.37 W/m2 OVC
13:45 76.6 °F 74.1 °F 30.02 in Calm     92% 0.00 in WeatherDisplay:10.37 W/m2 OVC
13:55 76.4 °F 73.5 °F 30.02 in Calm   1.0 mph 91% 0.00 in WeatherDisplay:10.37 W/m2 OVC
14:00 76.5 °F 73.7 °F 30.02 in Calm     91% 0.00 in WeatherDisplay:10.37 W/m2 OVC
14:05 76.7 °F 74.2 °F 30.01 in Calm     92% 0.00 in WeatherDisplay:10.37 W/m2 OVC
14:10 76.8 °F 74.0 °F 30.01 in Calm   1.0 mph 91% 0.00 in WeatherDisplay:10.37 W/m2 OVC
14:15 76.8 °F 73.6 °F 30.01 in Calm   2.0 mph 90% 0.00 in WeatherDisplay:10.37 W/m2 OVC
14:20 77.1 °F 74.0 °F 30.01 in Calm     90% 0.00 in WeatherDisplay:10.37 W/m2 -RA
14:25 77.7 °F 74.8 °F 30.00 in Calm     91% 0.00 in WeatherDisplay:10.37 W/m2 -RA
14:30 78.1 °F 73.9 °F 30.00 in Calm     87% 0.00 in WeatherDisplay:10.37 W/m2 OVC
14:35 78.7 °F 74.9 °F 30.00 in Calm   1.0 mph 88% 0.00 in WeatherDisplay:10.37 W/m2 OVC
14:40 79.1 °F 73.5 °F 30.00 in Calm   1.0 mph 83% 0.00 in WeatherDisplay:10.37 W/m2 OVC
14:45 79.4 °F 74.5 °F 30.00 in Calm   1.0 mph 85% 0.00 in WeatherDisplay:10.37 W/m2 OVC
14:50 79.3 °F 74.0 °F 30.00 in Calm   1.0 mph 84% 0.00 in WeatherDisplay:10.37 W/m2 OVC
14:55 79.3 °F 74.4 °F 30.00 in Calm   2.0 mph 85% 0.00 in WeatherDisplay:10.37 W/m2 OVC
15:00 79.5 °F 74.2 °F 30.00 in Calm   1.0 mph 84% 0.00 in WeatherDisplay:10.37 W/m2 OVC
15:05 79.9 °F 74.6 °F 30.00 in Calm   1.0 mph 84% 0.00 in WeatherDisplay:10.37 W/m2 OVC
15:10 80.2 °F 74.6 °F 30.00 in Calm   1.0 mph 83% 0.00 in WeatherDisplay:10.37 W/m2 OVC
15:15 80.4 °F 74.8 °F 29.99 in Calm   2.0 mph 83% 0.00 in WeatherDisplay:10.37 W/m2 OVC
15:20 80.4 °F 74.4 °F 29.99 in Calm     82% 0.00 in WeatherDisplay:10.37 W/m2 OVC
15:25 80.3 °F 73.9 °F 29.99 in Calm     81% 0.00 in WeatherDisplay:10.37 W/m2 OVC
15:30 80.2 °F 73.5 °F 29.99 in Calm   2.0 mph 80% 0.00 in WeatherDisplay:10.37 W/m2 OVC
15:35 80.2 °F 73.8 °F 29.99 in Calm     81% 0.00 in WeatherDisplay:10.37 W/m2 OVC
15:40 80.3 °F 74.6 °F 29.98 in Calm   1.0 mph 83% 0.00 in WeatherDisplay:10.37 W/m2 OVC
15:45 80.1 °F 74.8 °F 29.98 in Calm     84% 0.00 in WeatherDisplay:10.37 W/m2 OVC
15:50 80.0 °F 74.0 °F 29.98 in Calm   1.0 mph 82% 0.00 in WeatherDisplay:10.37 W/m2 OVC
15:55 79.9 °F 73.9 °F 29.98 in Calm   1.0 mph 82% 0.00 in WeatherDisplay:10.37 W/m2 OVC
16:00 79.8 °F 73.8 °F 29.98 in Calm     82% 0.00 in WeatherDisplay:10.37 W/m2 OVC
16:05 79.8 °F 74.5 °F 29.98 in Calm   1.0 mph 84% 0.00 in WeatherDisplay:10.37 W/m2 OVC
16:10 79.5 °F 74.2 °F 29.98 in Calm   1.0 mph 84% 0.00 in WeatherDisplay:10.37 W/m2 OVC
16:15 79.2 °F 73.9 °F 29.97 in Calm   1.0 mph 84% 0.00 in WeatherDisplay:10.37 W/m2 OVC
16:25 79.0 °F 74.5 °F 29.97 in Calm   1.0 mph 86% 0.00 in WeatherDisplay:10.37 W/m2 -RA
16:30 78.8 °F 74.6 °F 29.97 in Calm     87% 0.00 in WeatherDisplay:10.37 W/m2 -RA
16:40 79.1 °F 75.2 °F 29.97 in Calm   1.0 mph 88% 0.00 in WeatherDisplay:10.37 W/m2 -RA
16:45 79.1 °F 73.5 °F 29.97 in Calm     83% 0.00 in WeatherDisplay:10.37 W/m2 -RA
16:50 79.3 °F 73.4 °F 29.97 in Calm   1.0 mph 82% 0.00 in WeatherDisplay:10.37 W/m2 BKN
16:55 79.7 °F 74.0 °F 29.97 in Calm     83% 0.00 in WeatherDisplay:10.37 W/m2 BKN
17:00 80.0 °F 74.4 °F 29.97 in Calm   1.0 mph 83% 0.00 in WeatherDisplay:10.37 W/m2 BKN
17:05 80.2 °F 74.2 °F 29.96 in Calm     82% 0.00 in WeatherDisplay:10.37 W/m2 BKN
17:10 80.4 °F 74.4 °F 29.96 in Calm     82% 0.00 in WeatherDisplay:10.37 W/m2 BKN
17:15 80.5 °F 74.9 °F 29.96 in Calm     83% 0.00 in WeatherDisplay:10.37 W/m2 BKN
17:20 80.4 °F 74.7 °F 29.96 in Calm     83% 0.00 in WeatherDisplay:10.37 W/m2 BKN
17:25 80.2 °F 74.9 °F 29.96 in Calm     84% 0.00 in WeatherDisplay:10.37 W/m2 BKN
17:30 80.1 °F 75.2 °F 29.96 in Calm     85% 0.00 in WeatherDisplay:10.37 W/m2 BKN
17:35 79.9 °F 75.0 °F 29.96 in Calm     85% 0.00 in WeatherDisplay:10.37 W/m2 BKN
17:40 79.7 °F 74.8 °F 29.96 in Calm     85% 0.00 in WeatherDisplay:10.37 W/m2 BKN
17:45 79.6 °F 74.7 °F 29.96 in Calm     85% 0.00 in WeatherDisplay:10.37 W/m2 BKN
17:50 79.6 °F 74.7 °F 29.96 in Calm     85% 0.00 in WeatherDisplay:10.37 W/m2 BKN
17:55 79.7 °F 75.1 °F 29.96 in Calm     86% 0.00 in WeatherDisplay:10.37 W/m2 BKN
18:00 80.0 °F 75.4 °F 29.96 in Calm     86% 0.00 in WeatherDisplay:10.37 W/m2 BKN
18:05 80.2 °F 74.9 °F 29.96 in Calm     84% 0.00 in WeatherDisplay:10.37 W/m2 BKN
18:10 80.3 °F 74.7 °F 29.96 in Calm     83% 0.00 in WeatherDisplay:10.37 W/m2 BKN
18:15 80.3 °F 74.7 °F 29.96 in Calm     83% 0.00 in WeatherDisplay:10.37 W/m2 BKN
18:20 79.9 °F 73.2 °F 29.96 in Calm     80% 0.00 in WeatherDisplay:10.37 W/m2 BKN
18:25 79.7 °F 72.6 °F 29.96 in Calm   1.0 mph 79% 0.00 in WeatherDisplay:10.37 W/m2 BKN
18:30 79.3 °F 72.2 °F 29.96 in Calm   1.0 mph 79% 0.00 in WeatherDisplay:10.37 W/m2 BKN
18:35 79.1 °F 72.8 °F 29.97 in Calm   1.0 mph 81% 0.00 in WeatherDisplay:10.37 W/m2 BKN
18:40 78.8 °F 71.4 °F 29.96 in Calm   1.0 mph 78% 0.00 in WeatherDisplay:10.37 W/m2 BKN
18:45 78.7 °F 71.6 °F 29.96 in Calm     79% 0.00 in WeatherDisplay:10.37 W/m2 BKN
18:50 78.5 °F 71.5 °F 29.96 in Calm     79% 0.00 in WeatherDisplay:10.37 W/m2 BKN
18:55 78.4 °F 71.3 °F 29.96 in Calm     79% 0.00 in WeatherDisplay:10.37 W/m2 BKN
19:00 78.2 °F 71.5 °F 29.96 in Calm     80% 0.00 in WeatherDisplay:10.37 W/m2 BKN
19:05 78.1 °F 71.4 °F 29.96 in Calm     80% 0.00 in WeatherDisplay:10.37 W/m2 BKN
19:10 78.0 °F 70.9 °F 29.96 in Calm     79% 0.00 in WeatherDisplay:10.37 W/m2 BKN
19:15 77.9 °F 72.0 °F 29.96 in Calm     82% 0.00 in WeatherDisplay:10.37 W/m2 BKN
19:20 77.7 °F 71.4 °F 29.96 in Calm     81% 0.00 in WeatherDisplay:10.37 W/m2 BKN
19:25 77.6 °F 71.3 °F 29.96 in Calm     81% 0.00 in WeatherDisplay:10.37 W/m2 BKN
19:30 77.5 °F 71.6 °F 29.96 in Calm     82% 0.00 in WeatherDisplay:10.37 W/m2 BKN
19:35 77.4 °F 71.5 °F 29.96 in Calm     82% 0.00 in WeatherDisplay:10.37 W/m2 BKN
19:40 77.2 °F 71.7 °F 29.96 in Calm     83% 0.00 in WeatherDisplay:10.37 W/m2 BKN
19:45 77.2 °F 71.6 °F 29.96 in Calm     83% 0.00 in WeatherDisplay:10.37 W/m2 BKN
19:50 77.0 °F 71.1 °F 29.96 in Calm     82% 0.00 in WeatherDisplay:10.37 W/m2 BKN
19:55 76.9 °F 71.3 °F 29.96 in Calm     83% 0.00 in WeatherDisplay:10.37 W/m2 BKN
20:00 76.8 °F 71.2 °F 29.96 in Calm     83% 0.00 in WeatherDisplay:10.37 W/m2 BKN
20:05 76.7 °F 71.5 °F 29.96 in Calm     84% 0.00 in WeatherDisplay:10.37 W/m2 BKN
20:10 76.6 °F 71.4 °F 29.97 in Calm     84% 0.00 in WeatherDisplay:10.37 W/m2 BKN
20:15 76.5 °F 71.3 °F 29.97 in Calm     84% 0.00 in WeatherDisplay:10.37 W/m2 BKN
20:20 76.4 °F 71.6 °F 29.97 in Calm     85% 0.00 in WeatherDisplay:10.37 W/m2 BKN
20:25 76.3 °F 71.5 °F 29.97 in Calm     85% 0.00 in WeatherDisplay:10.37 W/m2 BKN
20:30 76.2 °F 71.3 °F 29.97 in Calm     85% 0.00 in WeatherDisplay:10.37 W/m2 BKN
20:35 76.0 °F 71.5 °F 29.97 in Calm     86% 0.00 in WeatherDisplay:10.37 W/m2 BKN
20:40 75.9 °F 71.4 °F 29.97 in Calm     86% 0.00 in WeatherDisplay:10.37 W/m2 BKN
20:45 75.9 °F 71.4 °F 29.97 in Calm     86% 0.00 in WeatherDisplay:10.37 W/m2 BKN
20:50 75.9 °F 71.4 °F 29.97 in Calm     86% 0.00 in WeatherDisplay:10.37 W/m2 BKN
20:55 75.8 °F 71.3 °F 29.97 in Calm     86% 0.00 in WeatherDisplay:10.37 W/m2 BKN
21:00 75.8 °F 71.3 °F 29.98 in Calm     86% 0.00 in WeatherDisplay:10.37 W/m2 BKN
21:10 75.7 °F 71.6 °F 29.98 in Calm     87% 0.00 in WeatherDisplay:10.37 W/m2 BKN
21:15 75.7 °F 71.5 °F 29.99 in Calm     87% 0.00 in WeatherDisplay:10.37 W/m2 BKN
21:20 75.6 °F 71.5 °F 29.99 in Calm     87% 0.00 in WeatherDisplay:10.37 W/m2 BKN
21:25 75.6 °F 71.8 °F 29.99 in Calm     88% 0.00 in WeatherDisplay:10.37 W/m2 BKN
21:30 75.5 °F 71.4 °F 29.99 in Calm     87% 0.00 in WeatherDisplay:10.37 W/m2 BKN
21:35 75.5 °F 71.7 °F 29.99 in Calm     88% 0.00 in WeatherDisplay:10.37 W/m2 BKN
21:40 75.4 °F 71.6 °F 29.99 in Calm     88% 0.00 in WeatherDisplay:10.37 W/m2 BKN
21:45 75.3 °F 71.5 °F 29.99 in Calm     88% 0.00 in WeatherDisplay:10.37 W/m2 BKN
21:50 75.2 °F 71.4 °F 29.99 in Calm     88% 0.00 in WeatherDisplay:10.37 W/m2 BKN
21:55 75.2 °F 71.4 °F 30.00 in Calm     88% 0.00 in WeatherDisplay:10.37 W/m2 BKN
22:00 75.1 °F 71.3 °F 30.00 in Calm     88% 0.00 in WeatherDisplay:10.37 W/m2 BKN
22:05 75.1 °F 71.3 °F 30.00 in Calm     88% 0.00 in WeatherDisplay:10.37 W/m2 BKN
22:10 75.1 °F 71.3 °F 30.00 in Calm     88% 0.00 in WeatherDisplay:10.37 W/m2 BKN
22:15 75.1 °F 71.6 °F 30.00 in Calm     89% 0.00 in WeatherDisplay:10.37 W/m2 BKN
22:20 75.0 °F 71.5 °F 30.01 in Calm     89% 0.00 in WeatherDisplay:10.37 W/m2 BKN
22:25 75.0 °F 71.5 °F 30.01 in Calm     89% 0.00 in WeatherDisplay:10.37 W/m2 BKN
22:30 75.1 °F 71.6 °F 30.01 in Calm     89% 0.00 in WeatherDisplay:10.37 W/m2 BKN
22:40 75.1 °F 71.6 °F 30.01 in Calm     89% 0.00 in WeatherDisplay:10.37 W/m2 BKN
22:45 75.2 °F 71.7 °F 30.01 in Calm     89% 0.00 in WeatherDisplay:10.37 W/m2 BKN
22:50 75.3 °F 71.8 °F 30.01 in Calm     89% 0.00 in WeatherDisplay:10.37 W/m2 BKN
22:55 75.3 °F 71.8 °F 30.00 in Calm     89% 0.00 in WeatherDisplay:10.37 W/m2 BKN
23:00 75.4 °F 72.3 °F 30.01 in Calm     90% 0.00 in WeatherDisplay:10.37 W/m2 BKN
23:10 75.5 °F 72.4 °F 30.00 in Calm     90% 0.00 in WeatherDisplay:10.37 W/m2 BKN
23:25 75.4 °F 72.3 °F 30.01 in Calm     90% 0.00 in WeatherDisplay:10.37 W/m2 BKN
23:30 75.3 °F 72.2 °F 30.01 in Calm     90% 0.00 in WeatherDisplay:10.37 W/m2 BKN
23:35 75.4 °F 72.6 °F 30.01 in Calm     91% 0.00 in WeatherDisplay:10.37 W/m2 BKN
23:40 75.5 °F 72.7 °F 30.01 in North 1.0 mph 3.0 mph 91% 0.00 in WeatherDisplay:10.37 W/m2 BKN
23:45 75.1 °F 71.7 °F 30.02 in WNW 1.0 mph 5.0 mph 89% 0.05 in WeatherDisplay:10.37 W/m2 RA
23:50 73.8 °F 70.0 °F 30.03 in Calm   2.0 mph 88% 0.21 in WeatherDisplay:10.37 W/m2 RA
23:55 72.7 °F 69.5 °F 30.03 in Calm   2.0 mph 90% 0.11 in WeatherDisplay:10.37 W/m2 RA
Piedmont Bend
Compliments of Weather Underground - 4 mb